Time;durP1;ratioP1;P1;durP2;ratioP2;P2;SDS_P1;SDS_P2;PMS_P1;PMS_P2;Temp;Humidity;BMP_temperature;BMP_pressure;BME280_temperature;BME280_humidity;BME280_pressure;Samples;Min_cycle;Max_cycle;Signal;HPM_P1;HPM_P2
2021/08/17 00:01:01;;;;;;;9.07;3.80;;;;;;;12.76;85.47;100397.63;125055;1093;64284;-81
2021/08/17 00:03:29;;;;;;;16.23;5.53;;;;;;;12.78;85.39;100395.59;125090;1093;64261;-83
2021/08/17 00:06:01;;;;;;;21.85;5.55;;;;;;;12.80;85.45;100397.04;124977;1093;64287;-80
2021/08/17 00:08:29;;;;;;;12.17;3.43;;;;;;;12.81;85.47;100424.47;124975;1092;65429;-80
2021/08/17 00:10:58;;;;;;;9.20;3.33;;;;;;;12.84;85.42;100406.28;125046;1093;64277;-80
2021/08/17 00:13:27;;;;;;;10.30;4.30;;;;;;;12.88;85.60;100409.38;125088;1092;64206;-80
2021/08/17 00:15:54;;;;;;;15.33;3.70;;;;;;;12.89;85.84;100410.19;125075;1092;64304;-80
2021/08/17 00:18:21;;;;;;;5.67;2.00;;;;;;;12.90;85.76;100390.52;125395;1093;64307;-80
2021/08/17 00:20:48;;;;;;;14.30;4.57;;;;;;;12.88;87.21;100401.39;124969;1093;64282;-81
2021/08/17 00:23:15;;;;;;;10.10;4.40;;;;;;;12.86;88.32;100395.44;125302;1092;64384;-81
2021/08/17 00:25:44;;;;;;;12.20;3.63;;;;;;;12.72;89.87;100393.72;125008;1093;64272;-81
2021/08/17 00:28:11;;;;;;;8.73;4.17;;;;;;;12.57;91.82;100389.33;124922;1093;64323;-79
2021/08/17 00:30:39;;;;;;;6.87;3.10;;;;;;;12.45;92.64;100404.19;124987;1093;65483;-78
2021/08/17 00:33:06;;;;;;;8.23;2.50;;;;;;;12.34;93.67;100394.91;124913;1093;64313;-78
2021/08/17 00:35:37;;;;;;;19.65;4.30;;;;;;;12.27;94.62;100388.73;124881;1093;64307;-82
2021/08/17 00:38:05;;;;;;;15.43;4.20;;;;;;;12.21;95.32;100395.63;124924;1092;64284;-77
2021/08/17 00:40:34;;;;;;;21.73;7.03;;;;;;;12.18;95.96;100396.03;125047;1093;64304;-77
2021/08/17 00:43:01;;;;;;;20.23;6.33;;;;;;;12.15;96.37;100399.05;124998;1093;64302;-77
2021/08/17 00:45:29;;;;;;;13.57;4.73;;;;;;;12.14;96.92;100391.30;124897;1092;64313;-78
2021/08/17 00:47:56;;;;;;;18.07;4.63;;;;;;;12.15;97.04;100392.92;124957;1093;64381;-78
2021/08/17 00:50:29;;;;;;;14.13;4.37;;;;;;;12.15;96.83;100404.38;124850;1093;64282;-78
2021/08/17 00:52:57;;;;;;;17.87;5.50;;;;;;;12.16;97.20;100400.72;125026;1093;64307;-77
2021/08/17 00:55:28;;;;;;;14.35;5.10;;;;;;;12.18;96.85;100405.85;124874;1093;64290;-77
2021/08/17 00:57:57;;;;;;;15.53;4.53;;;;;;;12.21;97.08;100408.11;124772;1093;64234;-78
2021/08/17 01:00:26;;;;;;;18.90;4.77;;;;;;;12.23;97.00;100401.58;124817;1093;64448;-80
2021/08/17 01:02:54;;;;;;;14.73;6.13;;;;;;;12.23;97.28;100412.22;124828;1093;64349;-78
2021/08/17 01:05:32;;;;;;;15.85;5.00;;;;;;;12.25;97.60;100404.05;124834;1093;64261;-78
2021/08/17 01:07:59;;;;;;;8.07;3.10;;;;;;;12.27;97.43;100417.17;124871;1093;64296;-78
2021/08/17 01:10:27;;;;;;;13.63;3.53;;;;;;;12.28;97.12;100413.48;124989;1093;64338;-79
2021/08/17 01:12:54;;;;;;;14.30;4.70;;;;;;;12.30;97.09;100412.27;124844;1093;64426;-79
2021/08/17 01:15:21;;;;;;;13.97;5.40;;;;;;;12.32;97.08;100425.38;124924;1093;64312;-79
2021/08/17 01:17:48;;;;;;;16.27;5.27;;;;;;;12.33;97.20;100425.20;124879;1093;64358;-79
2021/08/17 01:20:19;;;;;;;20.90;7.15;;;;;;;12.35;96.59;100412.52;124864;1093;64361;-78
2021/08/17 01:22:48;;;;;;;24.33;6.47;;;;;;;12.38;96.80;100416.63;124902;1093;64237;-79
2021/08/17 01:25:16;;;;;;;15.67;5.00;;;;;;;12.41;96.29;100421.55;124920;1093;64812;-78
2021/08/17 01:27:45;;;;;;;14.27;5.80;;;;;;;12.45;96.01;100417.48;124868;1093;64357;-78
2021/08/17 01:30:14;;;;;;;13.60;5.20;;;;;;;12.46;96.00;100411.16;124896;1093;64348;-79
2021/08/17 01:32:45;;;;;;;14.03;4.23;;;;;;;12.49;95.88;100417.93;124862;1092;64286;-79
2021/08/17 01:35:12;;;;;;;17.57;4.97;;;;;;;12.51;95.58;100424.70;124989;1093;64427;-79
2021/08/17 01:37:40;;;;;;;15.83;5.70;;;;;;;12.55;95.12;100412.65;124941;1093;64863;-79
2021/08/17 01:40:10;;;;;;;15.40;4.90;;;;;;;12.56;95.21;100422.30;124826;1093;64211;-79
2021/08/17 01:42:51;;;;;;;19.53;4.40;;;;;;;12.57;95.36;100431.91;124936;1093;64291;-79
2021/08/17 01:45:21;;;;;;;16.53;4.33;;;;;;;12.58;95.06;100433.56;124821;1093;64300;-78
2021/08/17 01:47:50;;;;;;;18.67;4.17;;;;;;;12.58;95.06;100433.56;124833;1093;64430;-79
2021/08/17 01:50:18;;;;;;;25.27;7.03;;;;;;;12.59;95.15;100435.19;125144;1093;64355;-78
2021/08/17 01:52:45;;;;;;;19.50;7.17;;;;;;;12.62;95.04;100437.48;124915;1093;64377;-79
2021/08/17 01:55:13;;;;;;;22.70;5.90;;;;;;;12.62;95.29;100442.80;124911;1093;64265;-79
2021/08/17 01:57:41;;;;;;;12.73;3.97;;;;;;;12.62;94.62;100460.59;124868;1093;64310;-78
2021/08/17 02:00:10;;;;;;;11.63;3.07;;;;;;;12.63;94.08;100459.59;124768;1093;64770;-78
2021/08/17 02:02:38;;;;;;;9.10;3.20;;;;;;;12.65;93.99;100439.73;124862;1092;64467;-78
2021/08/17 02:05:08;;;;;;;23.77;6.80;;;;;;;12.71;93.55;100462.10;124915;1093;64198;-78
2021/08/17 02:07:35;;;;;;;14.80;5.03;;;;;;;12.73;93.45;100453.91;124844;1092;64407;-81
2021/08/17 02:10:04;;;;;;;24.13;5.67;;;;;;;12.75;93.53;100451.87;124814;1093;64352;-78
2021/08/17 02:12:31;;;;;;;12.53;3.53;;;;;;;12.76;93.75;100442.88;124946;1093;64273;-79
2021/08/17 02:14:58;;;;;;;22.97;6.17;;;;;;;12.73;93.48;100451.23;124784;1093;64304;-77
2021/08/17 02:17:25;;;;;;;17.80;4.10;;;;;;;12.77;93.18;100423.22;124888;1093;64282;-79
2021/08/17 02:19:53;;;;;;;16.30;4.90;;;;;;;12.79;93.43;100447.80;124886;1093;64406;-79
2021/08/17 02:22:20;;;;;;;21.73;6.23;;;;;;;12.80;93.43;100465.44;124891;1093;64285;-79
2021/08/17 02:24:47;;;;;;;20.87;6.57;;;;;;;12.81;93.11;100440.44;124882;1093;64301;-79
2021/08/17 02:27:14;;;;;;;23.50;6.20;;;;;;;12.81;92.66;100462.58;124816;1093;64287;-79
2021/08/17 02:29:41;;;;;;;18.57;5.30;;;;;;;12.85;92.23;100441.70;124874;1093;64307;-79
2021/08/17 02:32:08;;;;;;;20.65;7.30;;;;;;;12.87;92.45;100444.17;124749;1093;64394;-79
2021/08/17 02:34:35;;;;;;;17.40;6.03;;;;;;;12.87;92.43;100482.26;124881;1093;64284;-78
2021/08/17 02:37:02;;;;;;;18.03;7.13;;;;;;;12.86;92.63;100459.33;124793;1093;64307;-79
2021/08/17 02:39:29;;;;;;;23.93;7.13;;;;;;;12.83;92.86;100449.06;124840;1092;64304;-78
2021/08/17 02:41:56;;;;;;;18.63;4.27;;;;;;;12.81;92.89;100473.23;124806;1093;64291;-80
2021/08/17 02:44:23;;;;;;;21.63;4.60;;;;;;;12.82;92.45;100458.08;124822;1093;64333;-79
2021/08/17 02:46:52;;;;;;;31.10;7.80;;;;;;;12.83;92.32;100454.38;124903;1093;64237;-78
2021/08/17 02:49:19;;;;;;;29.93;7.57;;;;;;;12.84;91.40;100466.69;124931;1093;65156;-77
2021/08/17 02:51:46;;;;;;;17.33;6.00;;;;;;;12.87;91.43;100458.30;124812;1092;64364;-80
2021/08/17 02:54:13;;;;;;;23.00;7.23;;;;;;;12.88;91.25;100451.13;124814;1093;64291;-78
2021/08/17 02:56:40;;;;;;;13.30;4.30;;;;;;;12.89;90.42;100458.92;124837;1093;64348;-78
2021/08/17 02:59:08;;;;;;;14.43;3.40;;;;;;;12.93;90.39;100459.37;124783;1093;64869;-78
2021/08/17 03:01:35;;;;;;;22.20;5.95;;;;;;;12.93;89.98;100470.83;124709;1093;64294;-80
2021/08/17 03:04:02;;;;;;;20.00;5.53;;;;;;;12.97;89.47;100461.44;124934;1094;64342;-78
2021/08/17 03:06:30;;;;;;;18.90;5.53;;;;;;;12.99;88.97;100491.35;124769;1093;64330;-78
2021/08/17 03:08:57;;;;;;;16.83;4.00;;;;;;;13.00;88.62;100474.34;124794;1093;64415;-79
2021/08/17 03:11:25;;;;;;;10.60;3.93;;;;;;;13.02;88.37;100468.83;124799;1092;64217;-79
2021/08/17 03:13:52;;;;;;;12.45;3.30;;;;;;;13.02;88.05;100469.64;124787;1093;64315;-79
2021/08/17 03:16:19;;;;;;;21.17;5.50;;;;;;;13.05;87.87;100471.94;124763;1093;64403;-79
2021/08/17 03:18:47;;;;;;;27.13;6.87;;;;;;;13.05;87.84;100474.59;124801;1093;64307;-80
2021/08/17 03:21:13;;;;;;;11.23;3.20;;;;;;;13.07;87.15;100477.06;124847;1093;64355;-79
2021/08/17 03:23:42;;;;;;;26.33;7.80;;;;;;;13.11;87.19;100482.80;124918;1093;64425;-78
2021/08/17 03:26:10;;;;;;;19.83;5.13;;;;;;;13.11;86.92;100480.14;124896;1093;64169;-79
2021/08/17 03:28:37;;;;;;;16.07;5.40;;;;;;;13.12;87.09;100487.13;124951;1092;64365;-79
2021/08/17 03:31:05;;;;;;;20.07;5.63;;;;;;;13.13;86.34;100494.08;124875;1093;64307;-78
2021/08/17 03:33:33;;;;;;;23.40;8.13;;;;;;;13.15;86.16;100492.86;124847;1093;64355;-78
2021/08/17 03:36:00;;;;;;;14.67;4.73;;;;;;;13.16;85.42;100501.70;124868;1093;64232;-80
2021/08/17 03:38:27;;;;;;;12.07;4.13;;;;;;;13.15;85.77;100500.03;124865;1093;64326;-80
2021/08/17 03:40:54;;;;;;;21.60;5.83;;;;;;;13.15;85.97;100498.19;124818;1091;64440;-80
2021/08/17 03:43:23;;;;;;;13.87;3.60;;;;;;;13.12;85.75;100485.28;124988;1091;64289;-79
2021/08/17 03:45:52;;;;;;;15.17;5.13;;;;;;;13.13;86.05;100504.73;125018;1093;64380;-80
2021/08/17 03:48:19;;;;;;;19.00;4.47;;;;;;;13.13;85.45;100500.22;124987;1092;64285;-80
2021/08/17 03:50:47;;;;;;;15.90;5.80;;;;;;;13.11;85.69;100512.09;124949;1093;65678;-80
2021/08/17 03:53:14;;;;;;;16.00;4.73;;;;;;;13.10;85.83;100497.97;124833;1092;64377;-80
2021/08/17 03:55:41;;;;;;;18.00;3.75;;;;;;;13.09;85.69;100517.64;124860;1093;64243;-79
2021/08/17 03:58:08;;;;;;;14.70;4.73;;;;;;;13.06;85.98;100505.52;124976;1093;64329;-80
2021/08/17 04:00:36;;;;;;;13.77;4.60;;;;;;;13.03;86.17;100516.58;125121;1093;64726;-79
2021/08/17 04:03:04;;;;;;;10.33;3.17;;;;;;;13.00;86.36;100506.30;124943;1093;64336;-80
2021/08/17 04:05:31;;;;;;;15.35;3.20;;;;;;;12.98;86.08;100515.50;124913;1093;64384;-80
2021/08/17 04:07:58;;;;;;;19.17;6.17;;;;;;;12.98;86.12;100515.50;125033;1092;64269;-80
2021/08/17 04:10:26;;;;;;;12.93;4.93;;;;;;;12.95;86.21;100548.67;124920;1093;65374;-81
2021/08/17 04:12:53;;;;;;;14.17;4.77;;;;;;;12.94;86.25;100523.08;124982;1093;64301;-80
2021/08/17 04:15:20;;;;;;;21.93;6.27;;;;;;;12.89;87.44;100501.52;125741;1093;64185;-81
2021/08/17 04:17:47;;;;;;;11.70;2.50;;;;;;;12.80;87.59;100524.00;126797;1093;64179;-80
2021/08/17 04:20:15;;;;;;;16.33;3.97;;;;;;;12.77;86.64;100525.20;126692;1092;64320;-82
2021/08/17 04:22:42;;;;;;;8.03;2.10;;;;;;;12.76;86.27;100525.39;125832;1093;64384;-79
2021/08/17 04:25:10;;;;;;;8.70;3.13;;;;;;;12.78;85.80;100560.63;125160;1093;64300;-81
2021/08/17 04:27:37;;;;;;;12.67;3.67;;;;;;;12.79;85.85;100523.18;125076;1093;64289;-82
2021/08/17 04:30:06;;;;;;;6.10;1.97;;;;;;;12.79;86.22;100543.63;124957;1093;64425;-80
2021/08/17 04:32:33;;;;;;;18.20;3.80;;;;;;;12.72;87.47;100543.58;124930;1093;64392;-80
2021/08/17 04:35:00;;;;;;;18.10;5.13;;;;;;;12.64;88.89;100535.73;124960;1092;64392;-81
2021/08/17 04:37:28;;;;;;;12.03;4.47;;;;;;;12.51;89.16;100552.41;124879;1092;64288;-81
2021/08/17 04:39:55;;;;;;;17.90;5.17;;;;;;;12.45;89.38;100542.52;124865;1093;64296;-79
2021/08/17 04:42:22;;;;;;;25.43;5.60;;;;;;;12.39;89.32;100553.95;124882;1092;64432;-80
2021/08/17 04:44:49;;;;;;;17.00;5.80;;;;;;;12.38;89.97;100562.94;124899;1092;64289;-80
2021/08/17 04:47:16;;;;;;;17.43;4.50;;;;;;;12.36;89.28;100538.36;124869;1093;64307;-82
2021/08/17 04:49:43;;;;;;;14.77;4.90;;;;;;;12.35;89.54;100561.48;124876;1092;65046;-79
2021/08/17 04:52:10;;;;;;;8.00;3.13;;;;;;;12.37;88.38;100542.68;124903;1093;64169;-81
2021/08/17 04:54:38;;;;;;;13.23;2.63;;;;;;;12.43;88.29;100550.72;124873;1093;64237;-81
2021/08/17 04:57:05;;;;;;;20.77;6.10;;;;;;;12.44;87.51;100551.53;124841;1092;64288;-80
2021/08/17 04:59:32;;;;;;;16.03;4.17;;;;;;;12.47;86.77;100545.00;124873;1093;64281;-82
2021/08/17 05:01:59;;;;;;;11.10;3.07;;;;;;;12.54;86.15;100557.36;124859;1093;64310;-82
2021/08/17 05:04:27;;;;;;;14.80;4.10;;;;;;;12.60;85.44;100572.56;124891;1091;64835;-79
2021/08/17 05:06:55;;;;;;;10.05;3.30;;;;;;;12.67;85.53;100550.52;124844;1092;64231;-80
2021/08/17 05:09:22;;;;;;;9.20;2.40;;;;;;;12.71;84.52;100567.72;124879;1093;65095;-79
2021/08/17 05:11:49;;;;;;;9.57;2.53;;;;;;;12.78;83.65;100581.92;124991;1093;64429;-82
2021/08/17 05:14:16;;;;;;;8.63;2.03;;;;;;;12.85;83.19;100580.13;124882;1093;64741;-80
2021/08/17 05:16:43;;;;;;;7.53;3.00;;;;;;;12.90;83.02;100571.56;124906;1092;64212;-80
2021/08/17 05:19:10;;;;;;;18.47;4.60;;;;;;;12.94;82.82;100578.99;124840;1093;64406;-80
2021/08/17 05:21:37;;;;;;;10.20;2.30;;;;;;;12.99;82.56;100600.52;124842;1092;64368;-80
2021/08/17 05:24:05;;;;;;;12.35;3.20;;;;;;;13.05;82.38;100574.97;124861;1093;64360;-83
2021/08/17 05:26:32;;;;;;;8.80;2.47;;;;;;;13.10;81.99;100579.71;124884;1093;64275;-81
2021/08/17 05:29:01;;;;;;;11.83;3.13;;;;;;;13.15;82.22;100580.75;124881;1093;64261;-81
2021/08/17 05:31:29;;;;;;;10.93;2.90;;;;;;;13.20;81.63;100588.19;124879;1093;64237;-83
2021/08/17 05:33:56;;;;;;;13.17;3.77;;;;;;;13.27;81.24;100567.73;124774;1092;64622;-73
2021/08/17 05:36:23;;;;;;;15.70;5.77;;;;;;;13.32;81.43;100597.29;124729;1093;64285;-74
2021/08/17 05:38:50;;;;;;;12.53;3.80;;;;;;;13.39;81.45;100576.86;124733;1093;64354;-74
2021/08/17 05:41:17;;;;;;;16.80;4.03;;;;;;;13.44;80.42;100590.41;124772;1093;64293;-73
2021/08/17 05:43:44;;;;;;;10.80;3.43;;;;;;;13.49;80.30;100591.66;124660;1093;64208;-74
2021/08/17 05:46:11;;;;;;;10.90;3.33;;;;;;;13.53;80.21;100587.58;124561;1093;64304;-74
2021/08/17 05:48:40;;;;;;;6.70;1.70;;;;;;;13.53;79.33;100600.91;124685;1093;64776;-75
2021/08/17 05:51:07;;;;;;;12.77;3.33;;;;;;;13.55;79.50;100585.55;124651;1093;64304;-73
2021/08/17 05:53:35;;;;;;;10.27;1.93;;;;;;;13.54;78.84;100594.57;124723;1093;64299;-75
2021/08/17 05:56:02;;;;;;;7.40;2.10;;;;;;;13.55;79.16;100625.52;124596;1092;65525;-74
2021/08/17 05:58:29;;;;;;;6.07;1.57;;;;;;;13.57;79.09;100596.83;124715;1093;64284;-74
2021/08/17 06:00:56;;;;;;;12.40;2.40;;;;;;;13.56;79.49;100616.52;124659;1093;64875;-74
2021/08/17 06:03:39;;;;;;;6.33;1.80;;;;;;;13.51;79.17;100617.08;124777;1093;64313;-74
2021/08/17 06:06:06;;;;;;;4.77;1.80;;;;;;;13.51;79.00;100608.27;124808;1093;64265;-75
2021/08/17 06:08:33;;;;;;;8.50;1.90;;;;;;;13.50;78.92;100599.46;124732;1092;64330;-75
2021/08/17 06:11:01;;;;;;;5.90;1.63;;;;;;;13.51;79.40;100627.74;124684;1094;64317;-75
2021/08/17 06:13:28;;;;;;;8.13;2.10;;;;;;;13.58;78.74;100609.13;124663;1093;64211;-73
2021/08/17 06:15:57;;;;;;;10.73;3.23;;;;;;;13.65;78.62;100605.48;124815;1093;64283;-73
2021/08/17 06:18:24;;;;;;;6.23;1.60;;;;;;;13.70;78.04;100620.88;124699;1093;64217;-75
2021/08/17 06:20:52;;;;;;;5.20;1.70;;;;;;;13.73;76.96;100625.84;124693;1093;64409;-73
2021/08/17 06:23:19;;;;;;;7.40;1.73;;;;;;;13.70;77.04;100622.73;124696;1093;65366;-75
2021/08/17 06:25:46;;;;;;;4.67;1.33;;;;;;;13.64;76.44;100613.67;124725;1093;64303;-73
2021/08/17 06:28:13;;;;;;;4.93;1.30;;;;;;;13.60;76.52;100633.73;124715;1093;64291;-74
2021/08/17 06:30:41;;;;;;;5.17;1.33;;;;;;;13.58;76.77;100633.11;124771;1093;64300;-73
2021/08/17 06:33:08;;;;;;;5.63;1.60;;;;;;;13.56;77.13;100619.19;124681;1093;64352;-74
2021/08/17 06:35:36;;;;;;;7.17;1.60;;;;;;;13.59;77.18;100626.77;124692;1093;64378;-72
2021/08/17 06:38:03;;;;;;;5.87;2.17;;;;;;;13.57;76.89;100628.81;124798;1093;64301;-74
2021/08/17 06:40:31;;;;;;;8.33;1.83;;;;;;;13.55;77.08;100628.19;124712;1093;64288;-74
2021/08/17 06:42:58;;;;;;;11.70;1.53;;;;;;;13.55;77.06;100639.66;124693;1092;64284;-72
2021/08/17 06:45:26;;;;;;;7.50;1.53;;;;;;;13.56;77.13;100635.17;124904;1093;64366;-74
2021/08/17 06:47:55;;;;;;;4.53;0.90;;;;;;;13.50;76.97;100631.45;124681;1093;64413;-74
2021/08/17 06:50:42;;;;;;;14.23;2.33;;;;;;;13.56;76.96;100641.33;124700;1093;64281;-74
2021/08/17 06:53:09;;;;;;;8.10;1.50;;;;;;;13.60;77.18;100637.25;124797;1092;64384;-73
2021/08/17 06:55:36;;;;;;;4.43;1.33;;;;;;;13.59;77.01;100648.91;124690;1092;64374;-75
2021/08/17 06:58:04;;;;;;;5.40;1.33;;;;;;;13.63;76.89;100649.36;124640;1093;64330;-74
2021/08/17 07:00:32;;;;;;;9.65;1.80;;;;;;;13.64;76.46;100650.98;124694;1093;64293;-74
2021/08/17 07:02:59;;;;;;;4.10;1.40;;;;;;;13.74;76.09;100643.46;124754;1093;64287;-73
2021/08/17 07:05:34;;;;;;;3.43;1.50;;;;;;;13.84;75.64;100632.45;124710;1093;64211;-74
2021/08/17 07:08:06;;;;;;;5.87;1.30;;;;;;;14.00;75.56;100636.61;124731;1091;64285;-74
2021/08/17 07:10:34;;;;;;;7.27;1.80;;;;;;;14.22;74.34;100632.80;124728;1093;64379;-74
2021/08/17 07:13:21;;;;;;;4.27;1.43;;;;;;;14.36;74.02;100644.33;124720;1093;64231;-73
2021/08/17 07:15:49;;;;;;;6.30;1.50;;;;;;;14.51;73.84;100646.83;124657;1093;64613;-75
2021/08/17 07:18:16;;;;;;;7.93;1.80;;;;;;;14.59;72.35;100653.87;124793;1093;64314;-74
2021/08/17 07:20:44;;;;;;;10.67;1.40;;;;;;;14.63;71.85;100647.10;124691;1093;64266;-73
2021/08/17 07:23:11;;;;;;;7.17;1.97;;;;;;;14.67;70.73;100633.14;125048;1092;64358;-73
2021/08/17 07:25:39;;;;;;;6.23;1.13;;;;;;;14.75;71.41;100639.30;124661;1093;64310;-74
2021/08/17 07:28:06;;;;;;;5.43;1.43;;;;;;;14.83;70.95;100669.33;124848;1093;64304;-72
2021/08/17 07:30:34;;;;;;;4.40;1.20;;;;;;;14.86;70.85;100634.19;124683;1093;64441;-72
2021/08/17 07:33:01;;;;;;;7.57;1.50;;;;;;;14.99;69.01;100644.05;124752;1092;64301;-72
2021/08/17 07:35:28;;;;;;;7.83;1.40;;;;;;;15.17;70.19;100632.73;124649;1093;64451;-73
2021/08/17 07:37:55;;;;;;;4.27;1.63;;;;;;;15.17;68.24;100674.67;124655;1093;64231;-75
2021/08/17 07:40:23;;;;;;;7.00;2.05;;;;;;;15.09;67.81;100635.64;124704;1093;64213;-74
2021/08/17 07:42:50;;;;;;;7.73;2.73;;;;;;;15.14;67.42;100648.38;124658;1096;64348;-73
2021/08/17 07:45:19;;;;;;;7.47;1.50;;;;;;;15.23;67.31;100647.13;127909;1093;61932;-74
2021/08/17 07:47:54;;;;;;;9.25;2.35;;;;;;;15.33;66.71;100666.24;124683;1093;64435;-74
2021/08/17 07:50:22;;;;;;;5.63;1.40;;;;;;;15.26;67.27;100646.73;124613;1091;64335;-74
2021/08/17 07:52:50;;;;;;;13.80;2.57;;;;;;;15.31;68.16;100648.78;124695;1092;64229;-73
2021/08/17 07:55:18;;;;;;;5.37;1.33;;;;;;;15.35;66.96;100663.38;124749;1093;64303;-73
2021/08/17 07:57:45;;;;;;;7.17;1.53;;;;;;;15.41;67.13;100658.02;124650;1093;64288;-73
2021/08/17 08:00:15;;;;;;;9.70;1.50;;;;;;;15.36;66.85;100668.48;124658;1092;64378;-74
2021/08/17 08:02:42;;;;;;;6.03;1.40;;;;;;;15.36;67.04;100641.77;124776;1093;64288;-73
2021/08/17 08:05:10;;;;;;;4.80;1.07;;;;;;;15.47;67.31;100654.52;124591;1092;64393;-72
2021/08/17 08:07:37;;;;;;;8.13;1.50;;;;;;;15.66;67.35;100646.64;124706;1093;64304;-73
2021/08/17 08:10:05;;;;;;;9.85;1.70;;;;;;;15.88;67.64;100657.94;124642;1093;64291;-73
2021/08/17 08:12:32;;;;;;;4.60;1.50;;;;;;;15.90;65.15;100679.95;124647;1093;64246;-74
2021/08/17 08:15:05;;;;;;;9.43;2.57;;;;;;;15.82;65.06;100646.22;124701;1093;64284;-72
2021/08/17 08:17:32;;;;;;;8.33;1.43;;;;;;;15.82;65.12;100656.11;124629;1093;64293;-73
2021/08/17 08:19:59;;;;;;;7.47;1.67;;;;;;;15.97;64.84;100650.50;124637;1093;64265;-73
2021/08/17 08:22:26;;;;;;;6.23;1.27;;;;;;;16.02;64.61;100642.65;124582;1093;64289;-75
2021/08/17 08:24:54;;;;;;;5.97;1.83;;;;;;;16.12;65.60;100639.53;124641;1093;65476;-75
2021/08/17 08:27:21;;;;;;;7.93;1.43;;;;;;;16.20;63.92;100653.49;124716;1093;64285;-74
2021/08/17 08:29:48;;;;;;;11.13;1.57;;;;;;;16.35;63.70;100639.83;124704;1093;64262;-74
2021/08/17 08:32:16;;;;;;;5.57;1.30;;;;;;;16.40;63.07;100631.96;124733;1093;64286;-73
2021/08/17 08:34:43;;;;;;;6.15;1.35;;;;;;;16.38;62.91;100651.95;124699;1093;64284;-74
2021/08/17 08:37:10;;;;;;;3.77;1.30;;;;;;;16.31;62.58;100641.29;124696;1093;64368;-75
2021/08/17 08:39:39;;;;;;;4.47;1.07;;;;;;;16.25;62.34;100650.17;124743;1091;64237;-74
2021/08/17 08:42:10;;;;;;;7.83;1.40;;;;;;;16.17;62.71;100669.98;124642;1093;64326;-73
2021/08/17 08:44:39;;;;;;;8.63;1.53;;;;;;;16.12;63.71;100667.11;124667;1092;64287;-73
2021/08/17 08:47:06;;;;;;;10.60;2.37;;;;;;;16.12;64.27;100675.14;124657;1093;64291;-73
2021/08/17 08:49:33;;;;;;;4.27;1.40;;;;;;;16.09;63.59;100675.58;124640;1091;64233;-73
2021/08/17 08:52:01;;;;;;;9.73;1.80;;;;;;;16.19;63.73;100672.43;124720;1093;64322;-74
2021/08/17 08:54:29;;;;;;;6.63;1.90;;;;;;;16.33;62.75;100665.98;124671;1091;64375;-74
2021/08/17 08:56:56;;;;;;;11.53;2.37;;;;;;;16.48;62.46;100687.13;124723;1093;64329;-74
2021/08/17 08:59:23;;;;;;;13.17;2.60;;;;;;;16.62;61.73;100664.59;124717;1093;64301;-76
2021/08/17 09:02:03;;;;;;;7.13;1.40;;;;;;;16.69;61.48;100649.30;124650;1093;64393;-74
2021/08/17 09:04:30;;;;;;;9.77;2.00;;;;;;;16.75;61.38;100660.20;124787;1093;64343;-73
2021/08/17 09:06:57;;;;;;;8.60;2.07;;;;;;;16.84;61.14;100667.77;124726;1093;64354;-75
2021/08/17 09:09:24;;;;;;;11.97;2.40;;;;;;;16.83;60.12;100678.70;124719;1093;64336;-72
2021/08/17 09:11:55;;;;;;;9.47;2.23;;;;;;;16.89;61.10;100667.11;124674;1093;64267;-73
2021/08/17 09:14:28;;;;;;;11.43;1.67;;;;;;;16.85;61.12;100663.22;124676;1092;65001;-74
2021/08/17 09:17:00;;;;;;;11.60;2.17;;;;;;;16.99;60.82;100662.09;124711;1093;64658;-73
2021/08/17 09:19:44;;;;;;;6.90;2.07;;;;;;;17.07;61.13;100659.15;124712;1092;64272;-74
2021/08/17 09:22:17;;;;;;;11.27;2.20;;;;;;;17.15;61.30;100652.70;124636;1093;64323;-74
2021/08/17 09:24:47;;;;;;;8.83;2.17;;;;;;;17.25;62.54;100660.23;124828;1092;64304;-73
2021/08/17 09:27:26;;;;;;;9.33;2.43;;;;;;;17.29;60.93;100662.25;124842;1092;64211;-74
2021/08/17 09:30:12;;;;;;;8.30;1.90;;;;;;;17.28;60.52;100663.30;124698;1092;64288;-74
2021/08/17 09:32:56;;;;;;;5.60;2.05;;;;;;;17.29;59.81;100650.71;124843;1093;64284;-73
2021/08/17 09:35:25;;;;;;;5.80;2.07;;;;;;;17.32;60.41;100656.47;124702;1093;64301;-73
2021/08/17 09:38:15;;;;;;;6.47;2.07;;;;;;;17.57;60.35;100658.27;124667;1093;64549;-73
2021/08/17 09:40:42;;;;;;;10.53;2.40;;;;;;;17.66;60.38;100669.53;124762;1093;64214;-73
2021/08/17 09:43:18;;;;;;;5.35;2.30;;;;;;;17.66;61.00;100659.64;124691;1093;64396;-74
2021/08/17 09:45:47;;;;;;;9.10;2.20;;;;;;;17.53;60.96;100679.38;124911;1093;64360;-73
2021/08/17 09:48:16;;;;;;;7.97;2.27;;;;;;;17.34;61.63;100653.58;124712;1093;64282;-73
2021/08/17 09:50:44;;;;;;;7.03;2.50;;;;;;;17.19;61.13;100661.11;124688;1094;64367;-75
2021/08/17 09:53:17;;;;;;;5.15;2.10;;;;;;;17.05;61.62;100671.95;124763;1092;64632;-75
2021/08/17 09:55:56;;;;;;;9.30;2.73;;;;;;;16.96;61.81;100659.87;124743;1092;64410;-73
2021/08/17 09:58:34;;;;;;;6.97;2.20;;;;;;;16.75;62.46;100670.91;124692;1093;64261;-74
2021/08/17 10:01:04;;;;;;;6.73;3.00;;;;;;;16.59;62.91;100682.95;124626;1094;64297;-73
2021/08/17 10:03:32;;;;;;;8.77;2.37;;;;;;;16.50;63.48;100674.34;124671;1093;64307;-73
2021/08/17 10:06:00;;;;;;;5.47;2.03;;;;;;;16.45;63.17;100693.73;124566;1093;64320;-73
2021/08/17 10:08:30;;;;;;;5.23;2.07;;;;;;;16.42;63.25;100677.27;124606;1093;64288;-74
2021/08/17 10:10:59;;;;;;;7.83;2.27;;;;;;;16.42;63.93;100666.56;124643;1093;64307;-73
2021/08/17 10:13:28;;;;;;;7.03;2.90;;;;;;;16.41;64.73;100659.58;124680;1092;64392;-74
2021/08/17 10:15:55;;;;;;;6.03;1.73;;;;;;;16.31;64.61;100671.55;124757;1093;64233;-76
2021/08/17 10:18:28;;;;;;;12.50;2.53;;;;;;;16.29;64.67;100660.23;124596;1092;64280;-73
2021/08/17 10:20:59;;;;;;;6.30;2.80;;;;;;;16.40;64.83;100664.09;124710;1093;64298;-73
2021/08/17 10:23:27;;;;;;;6.17;2.27;;;;;;;16.57;64.14;100659.05;124704;1093;64268;-73
2021/08/17 10:26:00;;;;;;;7.10;2.50;;;;;;;16.77;63.21;100680.38;124756;1093;64208;-75
2021/08/17 10:28:27;;;;;;;5.90;2.20;;;;;;;17.10;61.79;100657.89;124958;1093;64288;-73
2021/08/17 10:30:55;;;;;;;4.03;2.37;;;;;;;17.31;59.19;100678.13;124691;1092;64218;-73
2021/08/17 10:33:41;;;;;;;5.87;2.83;;;;;;;17.42;60.37;100661.30;124749;1093;64260;-74
2021/08/17 10:36:10;;;;;;;7.17;3.10;;;;;;;17.34;59.15;100666.98;124734;1093;64881;-74
2021/08/17 10:38:45;;;;;;;6.67;2.63;;;;;;;17.28;59.72;100665.17;124648;1093;64332;-75
2021/08/17 10:41:13;;;;;;;6.17;3.03;;;;;;;17.24;58.36;100680.05;124635;1093;64410;-74
2021/08/17 10:43:46;;;;;;;8.33;3.30;;;;;;;17.33;58.41;100670.69;124680;1092;64316;-73
2021/08/17 10:46:13;;;;;;;6.40;2.63;;;;;;;17.38;57.03;100703.01;124626;1093;64827;-74
2021/08/17 10:48:44;;;;;;;6.57;2.37;;;;;;;17.41;57.54;100680.32;124995;1093;64310;-74
2021/08/17 10:51:22;;;;;;;7.73;3.10;;;;;;;17.39;58.32;100656.40;124757;1093;64236;-75
2021/08/17 10:53:52;;;;;;;6.13;2.43;;;;;;;17.22;58.88;100652.64;124708;1093;65503;-74
2021/08/17 10:56:23;;;;;;;6.27;2.63;;;;;;;17.20;59.79;100652.05;124816;1093;64249;-73
2021/08/17 10:58:56;;;;;;;5.60;2.67;;;;;;;17.15;58.41;100670.63;124783;1093;64300;-73
2021/08/17 11:01:35;;;;;;;6.90;3.20;;;;;;;17.17;58.21;100671.23;124669;1093;64263;-73
2021/08/17 11:04:15;;;;;;;7.23;3.20;;;;;;;17.29;58.90;100656.89;124765;1093;64216;-74
2021/08/17 11:07:00;;;;;;;6.77;3.50;;;;;;;17.33;57.63;100676.05;124708;1093;64303;-74
2021/08/17 11:09:36;;;;;;;9.23;3.97;;;;;;;17.32;58.19;100650.29;124615;1093;64394;-73
2021/08/17 11:12:08;;;;;;;11.57;4.23;;;;;;;17.17;58.80;100653.31;124770;1093;64304;-75
2021/08/17 11:14:46;;;;;;;9.43;3.70;;;;;;;16.98;59.11;100697.14;124748;1092;64814;-73
2021/08/17 11:17:15;;;;;;;7.40;3.53;;;;;;;16.85;60.21;100676.63;124633;1092;64288;-73
2021/08/17 11:19:48;;;;;;;9.63;3.37;;;;;;;16.76;60.44;100675.22;124804;1093;64304;-73